sensor_id;sensor_type;location;lat;lon;timestamp;P1;durP1;ratioP1;P2;durP2;ratioP2
17261;SDS011;9873;52.236;21.002;2023-07-09T00:00:51;5.72;;;3.83;;
17261;SDS011;9873;52.236;21.002;2023-07-09T00:10:56;4.22;;;3.80;;
17261;SDS011;9873;52.236;21.002;2023-07-09T00:20:59;5.72;;;4.30;;
17261;SDS011;9873;52.236;21.002;2023-07-09T00:31:13;6.20;;;4.38;;
17261;SDS011;9873;52.236;21.002;2023-07-09T00:41:19;4.55;;;3.65;;
17261;SDS011;9873;52.236;21.002;2023-07-09T00:51:29;7.55;;;3.60;;
17261;SDS011;9873;52.236;21.002;2023-07-09T01:01:32;9.07;;;3.92;;
17261;SDS011;9873;52.236;21.002;2023-07-09T01:11:38;6.38;;;3.80;;
17261;SDS011;9873;52.236;21.002;2023-07-09T01:21:43;8.30;;;4.03;;
17261;SDS011;9873;52.236;21.002;2023-07-09T01:31:48;4.80;;;3.90;;
17261;SDS011;9873;52.236;21.002;2023-07-09T01:41:54;8.57;;;3.60;;
17261;SDS011;9873;52.236;21.002;2023-07-09T01:52:02;4.38;;;3.67;;
17261;SDS011;9873;52.236;21.002;2023-07-09T02:02:10;5.88;;;3.75;;
17261;SDS011;9873;52.236;21.002;2023-07-09T02:12:23;5.50;;;4.47;;
17261;SDS011;9873;52.236;21.002;2023-07-09T02:22:28;5.25;;;3.80;;
17261;SDS011;9873;52.236;21.002;2023-07-09T02:32:33;5.78;;;4.80;;
17261;SDS011;9873;52.236;21.002;2023-07-09T02:42:35;5.10;;;4.35;;
17261;SDS011;9873;52.236;21.002;2023-07-09T02:52:42;4.93;;;4.43;;
17261;SDS011;9873;52.236;21.002;2023-07-09T03:02:46;5.53;;;4.70;;
17261;SDS011;9873;52.236;21.002;2023-07-09T03:12:49;4.80;;;3.92;;
17261;SDS011;9873;52.236;21.002;2023-07-09T03:22:51;6.40;;;4.47;;
17261;SDS011;9873;52.236;21.002;2023-07-09T03:32:54;4.57;;;4.13;;
17261;SDS011;9873;52.236;21.002;2023-07-09T03:42:56;5.97;;;4.57;;
17261;SDS011;9873;52.236;21.002;2023-07-09T03:53:02;6.18;;;4.55;;
17261;SDS011;9873;52.236;21.002;2023-07-09T04:03:05;5.00;;;3.97;;
17261;SDS011;9873;52.236;21.002;2023-07-09T04:13:10;6.78;;;3.70;;
17261;SDS011;9873;52.236;21.002;2023-07-09T04:23:15;5.95;;;3.67;;
17261;SDS011;9873;52.236;21.002;2023-07-09T04:33:24;5.32;;;3.50;;
17261;SDS011;9873;52.236;21.002;2023-07-09T04:43:29;4.05;;;3.03;;
17261;SDS011;9873;52.236;21.002;2023-07-09T04:53:34;4.10;;;3.15;;
17261;SDS011;9873;52.236;21.002;2023-07-09T05:03:39;4.38;;;3.00;;
17261;SDS011;9873;52.236;21.002;2023-07-09T05:13:41;2.85;;;2.60;;
17261;SDS011;9873;52.236;21.002;2023-07-09T05:23:46;6.28;;;2.90;;
17261;SDS011;9873;52.236;21.002;2023-07-09T05:33:55;2.95;;;2.63;;
17261;SDS011;9873;52.236;21.002;2023-07-09T05:43:57;4.20;;;2.60;;
17261;SDS011;9873;52.236;21.002;2023-07-09T05:54:03;4.80;;;2.35;;
17261;SDS011;9873;52.236;21.002;2023-07-09T06:04:06;3.72;;;2.47;;
17261;SDS011;9873;52.236;21.002;2023-07-09T06:14:10;6.13;;;2.60;;
17261;SDS011;9873;52.236;21.002;2023-07-09T06:24:23;5.65;;;2.40;;
17261;SDS011;9873;52.236;21.002;2023-07-09T06:34:26;3.03;;;2.20;;
17261;SDS011;9873;52.236;21.002;2023-07-09T06:44:33;3.63;;;2.30;;
17261;SDS011;9873;52.236;21.002;2023-07-09T06:54:43;4.10;;;2.50;;
17261;SDS011;9873;52.236;21.002;2023-07-09T07:04:49;4.90;;;2.10;;
17261;SDS011;9873;52.236;21.002;2023-07-09T07:14:52;3.30;;;1.92;;
17261;SDS011;9873;52.236;21.002;2023-07-09T07:24:57;3.78;;;2.10;;
17261;SDS011;9873;52.236;21.002;2023-07-09T07:34:59;4.00;;;2.97;;
17261;SDS011;9873;52.236;21.002;2023-07-09T07:45:07;2.47;;;1.67;;
17261;SDS011;9873;52.236;21.002;2023-07-09T07:55:12;2.38;;;1.80;;
17261;SDS011;9873;52.236;21.002;2023-07-09T08:05:24;3.30;;;2.00;;
17261;SDS011;9873;52.236;21.002;2023-07-09T08:15:28;2.60;;;1.75;;
17261;SDS011;9873;52.236;21.002;2023-07-09T08:25:39;3.33;;;1.40;;
17261;SDS011;9873;52.236;21.002;2023-07-09T08:35:48;3.65;;;1.40;;
17261;SDS011;9873;52.236;21.002;2023-07-09T08:46:01;3.28;;;1.80;;
17261;SDS011;9873;52.236;21.002;2023-07-09T08:56:37;3.22;;;1.70;;
17261;SDS011;9873;52.236;21.002;2023-07-09T09:06:42;2.67;;;1.60;;
17261;SDS011;9873;52.236;21.002;2023-07-09T09:16:51;2.20;;;1.30;;
17261;SDS011;9873;52.236;21.002;2023-07-09T09:26:58;2.78;;;1.15;;
17261;SDS011;9873;52.236;21.002;2023-07-09T09:37:15;4.90;;;2.25;;
17261;SDS011;9873;52.236;21.002;2023-07-09T09:47:31;1.52;;;1.30;;
17261;SDS011;9873;52.236;21.002;2023-07-09T09:57:38;2.17;;;1.63;;
17261;SDS011;9873;52.236;21.002;2023-07-09T10:07:49;3.13;;;1.58;;
17261;SDS011;9873;52.236;21.002;2023-07-09T10:38:43;1.40;;;1.00;;
17261;SDS011;9873;52.236;21.002;2023-07-09T10:49:02;2.35;;;1.00;;
17261;SDS011;9873;52.236;21.002;2023-07-09T11:09:37;2.63;;;0.98;;
17261;SDS011;9873;52.236;21.002;2023-07-09T11:19:48;1.20;;;1.05;;
17261;SDS011;9873;52.236;21.002;2023-07-09T11:30:02;2.88;;;1.33;;
17261;SDS011;9873;52.236;21.002;2023-07-09T11:40:22;2.25;;;1.10;;
17261;SDS011;9873;52.236;21.002;2023-07-09T11:50:29;1.20;;;0.95;;
17261;SDS011;9873;52.236;21.002;2023-07-09T12:00:42;1.20;;;1.08;;
17261;SDS011;9873;52.236;21.002;2023-07-09T12:10:51;1.10;;;0.95;;
17261;SDS011;9873;52.236;21.002;2023-07-09T12:20:58;1.02;;;0.90;;
17261;SDS011;9873;52.236;21.002;2023-07-09T12:31:02;2.03;;;1.15;;
17261;SDS011;9873;52.236;21.002;2023-07-09T12:41:05;2.90;;;1.20;;
17261;SDS011;9873;52.236;21.002;2023-07-09T12:51:09;1.17;;;1.08;;
17261;SDS011;9873;52.236;21.002;2023-07-09T13:01:24;1.45;;;1.00;;
17261;SDS011;9873;52.236;21.002;2023-07-09T13:11:32;2.05;;;1.50;;
17261;SDS011;9873;52.236;21.002;2023-07-09T13:21:45;1.30;;;1.20;;
17261;SDS011;9873;52.236;21.002;2023-07-09T13:31:57;1.40;;;1.30;;
17261;SDS011;9873;52.236;21.002;2023-07-09T13:42:05;2.30;;;1.48;;
17261;SDS011;9873;52.236;21.002;2023-07-09T13:52:18;2.22;;;1.17;;
17261;SDS011;9873;52.236;21.002;2023-07-09T14:02:27;5.90;;;1.52;;
17261;SDS011;9873;52.236;21.002;2023-07-09T14:12:42;1.48;;;1.38;;
17261;SDS011;9873;52.236;21.002;2023-07-09T14:22:52;9.35;;;1.63;;
17261;SDS011;9873;52.236;21.002;2023-07-09T14:33:00;1.50;;;1.30;;
17261;SDS011;9873;52.236;21.002;2023-07-09T14:43:04;1.70;;;1.45;;
17261;SDS011;9873;52.236;21.002;2023-07-09T14:53:19;1.83;;;1.58;;
17261;SDS011;9873;52.236;21.002;2023-07-09T15:03:25;1.60;;;1.50;;
17261;SDS011;9873;52.236;21.002;2023-07-09T15:13:31;1.65;;;1.35;;
17261;SDS011;9873;52.236;21.002;2023-07-09T15:23:40;2.10;;;1.33;;
17261;SDS011;9873;52.236;21.002;2023-07-09T15:33:48;2.55;;;1.60;;
17261;SDS011;9873;52.236;21.002;2023-07-09T15:43:53;2.05;;;1.85;;
17261;SDS011;9873;52.236;21.002;2023-07-09T15:53:56;2.08;;;1.40;;
17261;SDS011;9873;52.236;21.002;2023-07-09T16:04:01;4.28;;;3.88;;
17261;SDS011;9873;52.236;21.002;2023-07-09T16:24:30;1.77;;;1.52;;
17261;SDS011;9873;52.236;21.002;2023-07-09T16:34:36;2.00;;;1.58;;
17261;SDS011;9873;52.236;21.002;2023-07-09T16:44:42;1.75;;;1.45;;
17261;SDS011;9873;52.236;21.002;2023-07-09T16:54:47;2.88;;;1.88;;
17261;SDS011;9873;52.236;21.002;2023-07-09T17:04:52;2.50;;;1.60;;
17261;SDS011;9873;52.236;21.002;2023-07-09T17:14:58;1.50;;;1.38;;
17261;SDS011;9873;52.236;21.002;2023-07-09T17:25:06;2.08;;;1.60;;
17261;SDS011;9873;52.236;21.002;2023-07-09T17:35:25;1.52;;;1.42;;
17261;SDS011;9873;52.236;21.002;2023-07-09T17:45:31;1.98;;;1.65;;
17261;SDS011;9873;52.236;21.002;2023-07-09T17:55:37;1.52;;;1.33;;
17261;SDS011;9873;52.236;21.002;2023-07-09T18:05:42;2.42;;;1.40;;
17261;SDS011;9873;52.236;21.002;2023-07-09T18:15:49;2.78;;;1.63;;
17261;SDS011;9873;52.236;21.002;2023-07-09T18:25:52;2.70;;;2.15;;
17261;SDS011;9873;52.236;21.002;2023-07-09T18:35:56;1.50;;;1.38;;
17261;SDS011;9873;52.236;21.002;2023-07-09T18:45:59;2.35;;;1.63;;
17261;SDS011;9873;52.236;21.002;2023-07-09T18:56:03;3.20;;;1.73;;
17261;SDS011;9873;52.236;21.002;2023-07-09T19:06:08;2.58;;;1.80;;
17261;SDS011;9873;52.236;21.002;2023-07-09T19:16:21;3.75;;;2.15;;
17261;SDS011;9873;52.236;21.002;2023-07-09T19:26:27;2.28;;;1.70;;
17261;SDS011;9873;52.236;21.002;2023-07-09T19:36:34;2.55;;;1.52;;
17261;SDS011;9873;52.236;21.002;2023-07-09T19:46:37;3.22;;;2.20;;
17261;SDS011;9873;52.236;21.002;2023-07-09T19:56:42;3.80;;;1.98;;
17261;SDS011;9873;52.236;21.002;2023-07-09T20:06:47;2.47;;;1.88;;
17261;SDS011;9873;52.236;21.002;2023-07-09T20:16:51;2.67;;;2.20;;
17261;SDS011;9873;52.236;21.002;2023-07-09T20:26:55;5.32;;;2.42;;
17261;SDS011;9873;52.236;21.002;2023-07-09T20:36:59;5.53;;;2.88;;
17261;SDS011;9873;52.236;21.002;2023-07-09T20:47:01;3.22;;;2.25;;
17261;SDS011;9873;52.236;21.002;2023-07-09T20:57:16;3.67;;;3.22;;
17261;SDS011;9873;52.236;21.002;2023-07-09T21:07:22;3.37;;;2.70;;
17261;SDS011;9873;52.236;21.002;2023-07-09T21:17:27;4.28;;;2.30;;
17261;SDS011;9873;52.236;21.002;2023-07-09T21:27:35;2.40;;;2.03;;
17261;SDS011;9873;52.236;21.002;2023-07-09T21:37:37;3.72;;;2.22;;
17261;SDS011;9873;52.236;21.002;2023-07-09T21:47:42;6.03;;;2.28;;
17261;SDS011;9873;52.236;21.002;2023-07-09T21:57:45;3.25;;;2.38;;
17261;SDS011;9873;52.236;21.002;2023-07-09T22:07:49;3.55;;;2.00;;
17261;SDS011;9873;52.236;21.002;2023-07-09T22:17:54;4.45;;;2.40;;
17261;SDS011;9873;52.236;21.002;2023-07-09T22:27:57;3.13;;;2.15;;
17261;SDS011;9873;52.236;21.002;2023-07-09T22:38:18;4.25;;;2.53;;
17261;SDS011;9873;52.236;21.002;2023-07-09T22:48:22;3.78;;;2.03;;
17261;SDS011;9873;52.236;21.002;2023-07-09T22:58:26;4.57;;;2.25;;
17261;SDS011;9873;52.236;21.002;2023-07-09T23:08:31;3.30;;;2.45;;
17261;SDS011;9873;52.236;21.002;2023-07-09T23:18:38;4.50;;;2.40;;
17261;SDS011;9873;52.236;21.002;2023-07-09T23:28:41;5.00;;;2.38;;
17261;SDS011;9873;52.236;21.002;2023-07-09T23:38:44;3.83;;;2.90;;
17261;SDS011;9873;52.236;21.002;2023-07-09T23:48:48;2.60;;;2.40;;
17261;SDS011;9873;52.236;21.002;2023-07-09T23:59:11;2.83;;;2.40;;
